sensor_id;sensor_type;location;lat;lon;timestamp;temperature;humidity
52849;DHT22;38714;53.180;5.812;2024-02-23T00:00:30;5.80;99.90
52849;DHT22;38714;53.180;5.812;2024-02-23T00:02:56;5.80;99.90
52849;DHT22;38714;53.180;5.812;2024-02-23T00:05:23;5.80;99.90
52849;DHT22;38714;53.180;5.812;2024-02-23T00:07:49;5.90;99.90
52849;DHT22;38714;53.180;5.812;2024-02-23T00:10:15;5.90;99.90
52849;DHT22;38714;53.180;5.812;2024-02-23T00:12:41;5.90;99.90
52849;DHT22;38714;53.180;5.812;2024-02-23T00:15:07;5.90;99.90
52849;DHT22;38714;53.180;5.812;2024-02-23T00:17:32;5.90;99.90
52849;DHT22;38714;53.180;5.812;2024-02-23T00:19:58;5.90;99.90
52849;DHT22;38714;53.180;5.812;2024-02-23T00:22:24;5.90;99.90
52849;DHT22;38714;53.180;5.812;2024-02-23T00:24:51;5.90;99.90
52849;DHT22;38714;53.180;5.812;2024-02-23T00:27:17;5.80;99.90
52849;DHT22;38714;53.180;5.812;2024-02-23T00:29:42;5.80;99.90
52849;DHT22;38714;53.180;5.812;2024-02-23T00:32:08;5.70;99.90
52849;DHT22;38714;53.180;5.812;2024-02-23T00:34:33;5.70;99.90
52849;DHT22;38714;53.180;5.812;2024-02-23T00:36:59;5.60;99.90
52849;DHT22;38714;53.180;5.812;2024-02-23T00:39:24;5.70;99.90
52849;DHT22;38714;53.180;5.812;2024-02-23T00:41:50;5.70;99.90
52849;DHT22;38714;53.180;5.812;2024-02-23T00:44:16;5.70;99.90
52849;DHT22;38714;53.180;5.812;2024-02-23T00:46:41;5.70;99.90
52849;DHT22;38714;53.180;5.812;2024-02-23T00:49:07;5.70;99.90
52849;DHT22;38714;53.180;5.812;2024-02-23T00:51:32;5.70;99.90
52849;DHT22;38714;53.180;5.812;2024-02-23T00:53:58;5.70;99.90
52849;DHT22;38714;53.180;5.812;2024-02-23T00:56:24;5.70;99.90
52849;DHT22;38714;53.180;5.812;2024-02-23T00:58:50;5.80;99.90
52849;DHT22;38714;53.180;5.812;2024-02-23T01:01:16;5.80;99.90
52849;DHT22;38714;53.180;5.812;2024-02-23T01:03:42;5.80;99.90
52849;DHT22;38714;53.180;5.812;2024-02-23T01:06:07;5.90;99.90
52849;DHT22;38714;53.180;5.812;2024-02-23T01:08:33;5.90;99.90
52849;DHT22;38714;53.180;5.812;2024-02-23T01:10:58;6.00;99.90
52849;DHT22;38714;53.180;5.812;2024-02-23T01:13:24;6.00;99.90
52849;DHT22;38714;53.180;5.812;2024-02-23T01:15:49;6.00;99.90
52849;DHT22;38714;53.180;5.812;2024-02-23T01:18:15;6.10;99.90
52849;DHT22;38714;53.180;5.812;2024-02-23T01:20:40;6.10;99.90
52849;DHT22;38714;53.180;5.812;2024-02-23T01:23:06;6.10;99.90
52849;DHT22;38714;53.180;5.812;2024-02-23T01:25:32;6.10;99.90
52849;DHT22;38714;53.180;5.812;2024-02-23T01:28:00;6.10;99.90
52849;DHT22;38714;53.180;5.812;2024-02-23T01:30:25;6.10;99.90
52849;DHT22;38714;53.180;5.812;2024-02-23T01:32:51;6.10;99.90
52849;DHT22;38714;53.180;5.812;2024-02-23T01:35:16;6.10;99.90
52849;DHT22;38714;53.180;5.812;2024-02-23T01:37:42;6.10;99.90
52849;DHT22;38714;53.180;5.812;2024-02-23T01:40:08;6.10;99.90
52849;DHT22;38714;53.180;5.812;2024-02-23T01:42:33;6.10;99.90
52849;DHT22;38714;53.180;5.812;2024-02-23T01:44:59;6.20;99.90
52849;DHT22;38714;53.180;5.812;2024-02-23T01:47:25;6.20;99.90
52849;DHT22;38714;53.180;5.812;2024-02-23T01:49:51;6.20;99.90
52849;DHT22;38714;53.180;5.812;2024-02-23T01:52:17;6.10;99.90
52849;DHT22;38714;53.180;5.812;2024-02-23T01:54:44;6.20;99.90
52849;DHT22;38714;53.180;5.812;2024-02-23T01:57:10;6.10;99.90
52849;DHT22;38714;53.180;5.812;2024-02-23T01:59:38;6.10;99.90
52849;DHT22;38714;53.180;5.812;2024-02-23T02:02:04;6.10;99.90
52849;DHT22;38714;53.180;5.812;2024-02-23T02:04:30;6.10;99.90
52849;DHT22;38714;53.180;5.812;2024-02-23T02:06:57;6.10;99.90
52849;DHT22;38714;53.180;5.812;2024-02-23T02:09:23;6.10;99.90
52849;DHT22;38714;53.180;5.812;2024-02-23T02:11:49;6.10;99.90
52849;DHT22;38714;53.180;5.812;2024-02-23T02:14:16;6.10;99.90
52849;DHT22;38714;53.180;5.812;2024-02-23T02:16:42;6.10;99.90
52849;DHT22;38714;53.180;5.812;2024-02-23T02:19:09;6.10;99.90
52849;DHT22;38714;53.180;5.812;2024-02-23T02:21:35;6.00;99.90
52849;DHT22;38714;53.180;5.812;2024-02-23T02:24:01;6.00;99.90
52849;DHT22;38714;53.180;5.812;2024-02-23T02:26:27;6.00;99.90
52849;DHT22;38714;53.180;5.812;2024-02-23T02:28:52;6.00;99.90
52849;DHT22;38714;53.180;5.812;2024-02-23T02:31:18;6.00;99.90
52849;DHT22;38714;53.180;5.812;2024-02-23T02:33:44;6.00;99.90
52849;DHT22;38714;53.180;5.812;2024-02-23T02:36:10;6.00;99.90
52849;DHT22;38714;53.180;5.812;2024-02-23T02:38:37;6.00;99.90
52849;DHT22;38714;53.180;5.812;2024-02-23T02:41:03;6.00;99.90
52849;DHT22;38714;53.180;5.812;2024-02-23T02:43:29;6.00;99.90
52849;DHT22;38714;53.180;5.812;2024-02-23T02:45:54;5.90;99.90
52849;DHT22;38714;53.180;5.812;2024-02-23T02:48:20;5.90;99.90
52849;DHT22;38714;53.180;5.812;2024-02-23T02:50:45;5.90;99.90
52849;DHT22;38714;53.180;5.812;2024-02-23T02:53:11;5.90;99.90
52849;DHT22;38714;53.180;5.812;2024-02-23T02:55:41;5.90;99.90
52849;DHT22;38714;53.180;5.812;2024-02-23T02:58:06;5.80;99.90
52849;DHT22;38714;53.180;5.812;2024-02-23T03:00:32;5.80;99.90
52849;DHT22;38714;53.180;5.812;2024-02-23T03:02:57;5.80;99.90
52849;DHT22;38714;53.180;5.812;2024-02-23T03:05:23;5.80;99.90
52849;DHT22;38714;53.180;5.812;2024-02-23T03:07:48;5.80;99.90
52849;DHT22;38714;53.180;5.812;2024-02-23T03:10:14;5.80;99.90
52849;DHT22;38714;53.180;5.812;2024-02-23T03:12:41;5.80;99.90
52849;DHT22;38714;53.180;5.812;2024-02-23T03:15:06;5.80;99.90
52849;DHT22;38714;53.180;5.812;2024-02-23T03:17:32;5.80;99.90
52849;DHT22;38714;53.180;5.812;2024-02-23T03:19:58;5.80;99.90
52849;DHT22;38714;53.180;5.812;2024-02-23T03:22:24;5.80;99.90
52849;DHT22;38714;53.180;5.812;2024-02-23T03:24:49;5.80;99.90
52849;DHT22;38714;53.180;5.812;2024-02-23T03:27:15;5.80;99.90
52849;DHT22;38714;53.180;5.812;2024-02-23T03:29:41;5.80;99.90
52849;DHT22;38714;53.180;5.812;2024-02-23T03:32:06;5.80;99.90
52849;DHT22;38714;53.180;5.812;2024-02-23T03:34:32;5.80;99.90
52849;DHT22;38714;53.180;5.812;2024-02-23T03:36:58;5.80;99.90
52849;DHT22;38714;53.180;5.812;2024-02-23T03:39:28;5.80;99.90
52849;DHT22;38714;53.180;5.812;2024-02-23T03:41:54;5.80;99.90
52849;DHT22;38714;53.180;5.812;2024-02-23T03:44:19;5.80;99.90
52849;DHT22;38714;53.180;5.812;2024-02-23T03:46:45;5.80;99.90
52849;DHT22;38714;53.180;5.812;2024-02-23T03:49:10;5.80;99.90
52849;DHT22;38714;53.180;5.812;2024-02-23T03:51:37;5.80;99.90
52849;DHT22;38714;53.180;5.812;2024-02-23T03:54:05;5.80;99.90
52849;DHT22;38714;53.180;5.812;2024-02-23T03:56:40;5.80;99.90
52849;DHT22;38714;53.180;5.812;2024-02-23T03:59:09;5.80;99.90
52849;DHT22;38714;53.180;5.812;2024-02-23T04:01:36;5.70;99.90
52849;DHT22;38714;53.180;5.812;2024-02-23T04:04:02;5.70;99.90
52849;DHT22;38714;53.180;5.812;2024-02-23T04:06:28;5.70;99.90
52849;DHT22;38714;53.180;5.812;2024-02-23T04:08:53;5.70;99.90
52849;DHT22;38714;53.180;5.812;2024-02-23T04:11:19;5.70;99.90
52849;DHT22;38714;53.180;5.812;2024-02-23T04:13:44;5.70;99.90
52849;DHT22;38714;53.180;5.812;2024-02-23T04:16:10;5.70;99.90
52849;DHT22;38714;53.180;5.812;2024-02-23T04:18:36;5.60;99.90
52849;DHT22;38714;53.180;5.812;2024-02-23T04:21:01;5.60;99.90
52849;DHT22;38714;53.180;5.812;2024-02-23T04:23:28;5.60;99.90
52849;DHT22;38714;53.180;5.812;2024-02-23T04:25:53;5.60;99.90
52849;DHT22;38714;53.180;5.812;2024-02-23T04:28:19;5.60;99.90
52849;DHT22;38714;53.180;5.812;2024-02-23T04:30:45;5.60;99.90
52849;DHT22;38714;53.180;5.812;2024-02-23T04:33:10;5.60;99.90
52849;DHT22;38714;53.180;5.812;2024-02-23T04:35:36;5.60;99.90
52849;DHT22;38714;53.180;5.812;2024-02-23T04:38:02;5.50;99.90
52849;DHT22;38714;53.180;5.812;2024-02-23T04:40:27;5.50;99.90
52849;DHT22;38714;53.180;5.812;2024-02-23T04:42:53;5.50;99.90
52849;DHT22;38714;53.180;5.812;2024-02-23T04:45:18;5.50;99.90
52849;DHT22;38714;53.180;5.812;2024-02-23T04:47:44;5.40;99.90
52849;DHT22;38714;53.180;5.812;2024-02-23T04:50:12;5.40;99.90
52849;DHT22;38714;53.180;5.812;2024-02-23T04:52:37;5.40;99.90
52849;DHT22;38714;53.180;5.812;2024-02-23T04:55:03;5.40;99.90
52849;DHT22;38714;53.180;5.812;2024-02-23T04:57:29;5.40;99.90
52849;DHT22;38714;53.180;5.812;2024-02-23T04:59:54;5.30;99.90
52849;DHT22;38714;53.180;5.812;2024-02-23T05:02:20;5.30;99.90
52849;DHT22;38714;53.180;5.812;2024-02-23T05:04:45;5.30;99.90
52849;DHT22;38714;53.180;5.812;2024-02-23T05:07:11;5.30;99.90
52849;DHT22;38714;53.180;5.812;2024-02-23T05:09:37;5.30;99.90
52849;DHT22;38714;53.180;5.812;2024-02-23T05:12:03;5.30;99.90
52849;DHT22;38714;53.180;5.812;2024-02-23T05:14:29;5.20;99.90
52849;DHT22;38714;53.180;5.812;2024-02-23T05:16:54;5.20;99.90
52849;DHT22;38714;53.180;5.812;2024-02-23T05:19:20;5.20;99.90
52849;DHT22;38714;53.180;5.812;2024-02-23T05:21:45;5.20;99.90
52849;DHT22;38714;53.180;5.812;2024-02-23T05:24:11;5.20;99.90
52849;DHT22;38714;53.180;5.812;2024-02-23T05:26:37;5.10;99.90
52849;DHT22;38714;53.180;5.812;2024-02-23T05:29:03;5.10;99.90
52849;DHT22;38714;53.180;5.812;2024-02-23T05:31:44;5.10;99.90
52849;DHT22;38714;53.180;5.812;2024-02-23T05:34:11;5.10;99.90
52849;DHT22;38714;53.180;5.812;2024-02-23T05:36:36;5.10;99.90
52849;DHT22;38714;53.180;5.812;2024-02-23T05:39:02;5.10;99.90
52849;DHT22;38714;53.180;5.812;2024-02-23T05:41:28;5.00;99.90
52849;DHT22;38714;53.180;5.812;2024-02-23T05:43:53;5.10;99.90
52849;DHT22;38714;53.180;5.812;2024-02-23T05:46:19;5.10;99.90
52849;DHT22;38714;53.180;5.812;2024-02-23T05:48:46;5.10;99.90
52849;DHT22;38714;53.180;5.812;2024-02-23T05:51:12;5.00;99.90
52849;DHT22;38714;53.180;5.812;2024-02-23T05:53:37;5.00;99.90
52849;DHT22;38714;53.180;5.812;2024-02-23T05:56:03;5.00;99.90
52849;DHT22;38714;53.180;5.812;2024-02-23T05:58:29;5.00;99.90
52849;DHT22;38714;53.180;5.812;2024-02-23T06:00:54;5.00;99.90
52849;DHT22;38714;53.180;5.812;2024-02-23T06:03:20;5.00;99.90
52849;DHT22;38714;53.180;5.812;2024-02-23T06:05:46;5.00;99.90
52849;DHT22;38714;53.180;5.812;2024-02-23T06:08:11;5.00;99.90
52849;DHT22;38714;53.180;5.812;2024-02-23T06:10:37;4.90;99.90
52849;DHT22;38714;53.180;5.812;2024-02-23T06:13:03;5.00;99.90
52849;DHT22;38714;53.180;5.812;2024-02-23T06:15:29;5.00;99.90
52849;DHT22;38714;53.180;5.812;2024-02-23T06:17:54;4.90;99.90
52849;DHT22;38714;53.180;5.812;2024-02-23T06:20:20;4.90;99.90
52849;DHT22;38714;53.180;5.812;2024-02-23T06:22:45;5.00;99.90
52849;DHT22;38714;53.180;5.812;2024-02-23T06:25:11;5.00;99.90
52849;DHT22;38714;53.180;5.812;2024-02-23T06:27:37;5.10;99.90
52849;DHT22;38714;53.180;5.812;2024-02-23T06:30:04;5.10;99.90
52849;DHT22;38714;53.180;5.812;2024-02-23T06:32:30;5.20;99.90
52849;DHT22;38714;53.180;5.812;2024-02-23T06:34:55;5.20;99.90
52849;DHT22;38714;53.180;5.812;2024-02-23T06:37:21;5.20;99.90
52849;DHT22;38714;53.180;5.812;2024-02-23T06:39:46;5.30;99.90
52849;DHT22;38714;53.180;5.812;2024-02-23T06:42:16;5.30;99.90
52849;DHT22;38714;53.180;5.812;2024-02-23T06:44:42;5.30;99.90
52849;DHT22;38714;53.180;5.812;2024-02-23T06:47:08;5.40;99.90
52849;DHT22;38714;53.180;5.812;2024-02-23T06:49:33;5.40;99.90
52849;DHT22;38714;53.180;5.812;2024-02-23T06:51:59;5.40;99.90
52849;DHT22;38714;53.180;5.812;2024-02-23T06:54:25;5.40;99.90
52849;DHT22;38714;53.180;5.812;2024-02-23T06:56:50;5.30;99.90
52849;DHT22;38714;53.180;5.812;2024-02-23T06:59:16;5.30;99.90
52849;DHT22;38714;53.180;5.812;2024-02-23T07:01:49;5.30;99.90
52849;DHT22;38714;53.180;5.812;2024-02-23T07:04:15;5.30;99.90
52849;DHT22;38714;53.180;5.812;2024-02-23T07:06:40;5.30;99.90
52849;DHT22;38714;53.180;5.812;2024-02-23T07:09:06;5.20;99.90
52849;DHT22;38714;53.180;5.812;2024-02-23T07:11:31;5.20;99.90
52849;DHT22;38714;53.180;5.812;2024-02-23T07:13:57;5.20;99.90
52849;DHT22;38714;53.180;5.812;2024-02-23T07:16:22;5.20;99.90
52849;DHT22;38714;53.180;5.812;2024-02-23T07:18:48;5.20;99.90
52849;DHT22;38714;53.180;5.812;2024-02-23T07:21:17;5.30;99.90
52849;DHT22;38714;53.180;5.812;2024-02-23T07:23:43;5.30;99.90
52849;DHT22;38714;53.180;5.812;2024-02-23T07:26:08;5.30;99.90
52849;DHT22;38714;53.180;5.812;2024-02-23T07:28:34;5.30;99.90
52849;DHT22;38714;53.180;5.812;2024-02-23T07:30:59;5.30;99.90
52849;DHT22;38714;53.180;5.812;2024-02-23T07:33:25;5.40;99.90
52849;DHT22;38714;53.180;5.812;2024-02-23T07:35:51;5.40;99.90
52849;DHT22;38714;53.180;5.812;2024-02-23T07:38:16;5.40;99.90
52849;DHT22;38714;53.180;5.812;2024-02-23T07:40:44;5.50;99.90
52849;DHT22;38714;53.180;5.812;2024-02-23T07:43:09;5.50;99.90
52849;DHT22;38714;53.180;5.812;2024-02-23T07:45:37;5.50;99.90
52849;DHT22;38714;53.180;5.812;2024-02-23T07:48:03;5.50;99.90
52849;DHT22;38714;53.180;5.812;2024-02-23T07:50:29;5.60;99.90
52849;DHT22;38714;53.180;5.812;2024-02-23T07:52:54;5.60;99.90
52849;DHT22;38714;53.180;5.812;2024-02-23T07:55:20;5.60;99.90
52849;DHT22;38714;53.180;5.812;2024-02-23T07:57:45;5.60;99.90
52849;DHT22;38714;53.180;5.812;2024-02-23T08:00:11;5.60;99.90
52849;DHT22;38714;53.180;5.812;2024-02-23T08:02:38;5.70;99.90
52849;DHT22;38714;53.180;5.812;2024-02-23T08:05:03;5.70;99.90
52849;DHT22;38714;53.180;5.812;2024-02-23T08:07:29;5.70;99.90
52849;DHT22;38714;53.180;5.812;2024-02-23T08:09:56;5.80;99.90
52849;DHT22;38714;53.180;5.812;2024-02-23T08:12:22;5.80;99.90
52849;DHT22;38714;53.180;5.812;2024-02-23T08:14:48;5.80;99.90
52849;DHT22;38714;53.180;5.812;2024-02-23T08:17:15;5.80;99.90
52849;DHT22;38714;53.180;5.812;2024-02-23T08:19:41;5.80;99.90
52849;DHT22;38714;53.180;5.812;2024-02-23T08:22:07;5.90;99.90
52849;DHT22;38714;53.180;5.812;2024-02-23T08:24:32;5.90;99.90
52849;DHT22;38714;53.180;5.812;2024-02-23T08:26:58;5.90;99.90
52849;DHT22;38714;53.180;5.812;2024-02-23T08:29:25;5.90;99.90
52849;DHT22;38714;53.180;5.812;2024-02-23T08:31:50;6.00;99.90
52849;DHT22;38714;53.180;5.812;2024-02-23T08:34:16;5.90;99.90
52849;DHT22;38714;53.180;5.812;2024-02-23T08:36:43;6.00;99.90
52849;DHT22;38714;53.180;5.812;2024-02-23T08:39:08;6.00;99.90
52849;DHT22;38714;53.180;5.812;2024-02-23T08:41:34;6.00;99.90
52849;DHT22;38714;53.180;5.812;2024-02-23T08:43:59;5.90;99.90
52849;DHT22;38714;53.180;5.812;2024-02-23T08:46:25;6.00;99.90
52849;DHT22;38714;53.180;5.812;2024-02-23T08:48:51;6.00;99.90
52849;DHT22;38714;53.180;5.812;2024-02-23T08:51:16;6.00;99.90
52849;DHT22;38714;53.180;5.812;2024-02-23T08:53:42;6.00;99.90
52849;DHT22;38714;53.180;5.812;2024-02-23T08:56:08;5.90;99.90
52849;DHT22;38714;53.180;5.812;2024-02-23T08:58:35;5.90;99.90
52849;DHT22;38714;53.180;5.812;2024-02-23T09:01:00;5.90;99.90
52849;DHT22;38714;53.180;5.812;2024-02-23T09:03:26;5.90;99.90
52849;DHT22;38714;53.180;5.812;2024-02-23T09:05:51;5.90;99.90
52849;DHT22;38714;53.180;5.812;2024-02-23T09:08:17;5.90;99.90
52849;DHT22;38714;53.180;5.812;2024-02-23T09:10:43;5.90;99.90
52849;DHT22;38714;53.180;5.812;2024-02-23T09:13:09;5.90;99.90
52849;DHT22;38714;53.180;5.812;2024-02-23T09:15:34;6.00;99.90
52849;DHT22;38714;53.180;5.812;2024-02-23T09:18:00;5.90;99.90
52849;DHT22;38714;53.180;5.812;2024-02-23T09:20:25;6.00;99.90
52849;DHT22;38714;53.180;5.812;2024-02-23T09:22:51;6.00;99.90
52849;DHT22;38714;53.180;5.812;2024-02-23T09:25:17;6.00;99.90
52849;DHT22;38714;53.180;5.812;2024-02-23T09:27:43;6.00;99.90
52849;DHT22;38714;53.180;5.812;2024-02-23T09:30:11;6.00;99.90
52849;DHT22;38714;53.180;5.812;2024-02-23T09:32:37;6.00;99.90
52849;DHT22;38714;53.180;5.812;2024-02-23T09:35:02;6.00;99.90
52849;DHT22;38714;53.180;5.812;2024-02-23T09:37:28;6.00;99.90
52849;DHT22;38714;53.180;5.812;2024-02-23T09:39:54;6.00;99.90
52849;DHT22;38714;53.180;5.812;2024-02-23T09:42:22;6.00;99.90
52849;DHT22;38714;53.180;5.812;2024-02-23T09:44:58;6.10;99.90
52849;DHT22;38714;53.180;5.812;2024-02-23T09:47:28;6.10;99.90
52849;DHT22;38714;53.180;5.812;2024-02-23T09:49:54;6.10;99.90
52849;DHT22;38714;53.180;5.812;2024-02-23T09:52:21;6.10;99.90
52849;DHT22;38714;53.180;5.812;2024-02-23T09:54:47;6.00;99.90
52849;DHT22;38714;53.180;5.812;2024-02-23T09:57:14;6.00;99.90
52849;DHT22;38714;53.180;5.812;2024-02-23T09:59:41;5.90;99.90
52849;DHT22;38714;53.180;5.812;2024-02-23T10:02:16;5.90;99.90
52849;DHT22;38714;53.180;5.812;2024-02-23T10:04:43;5.90;99.90
52849;DHT22;38714;53.180;5.812;2024-02-23T10:07:09;5.90;99.90
52849;DHT22;38714;53.180;5.812;2024-02-23T10:09:35;5.80;99.90
52849;DHT22;38714;53.180;5.812;2024-02-23T10:12:04;5.90;99.90
52849;DHT22;38714;53.180;5.812;2024-02-23T10:14:30;5.90;99.90
52849;DHT22;38714;53.180;5.812;2024-02-23T10:16:55;5.90;99.90
52849;DHT22;38714;53.180;5.812;2024-02-23T10:19:21;5.90;99.90
52849;DHT22;38714;53.180;5.812;2024-02-23T10:21:47;6.00;99.90
52849;DHT22;38714;53.180;5.812;2024-02-23T10:24:17;5.90;99.90
52849;DHT22;38714;53.180;5.812;2024-02-23T10:26:42;6.00;99.90
52849;DHT22;38714;53.180;5.812;2024-02-23T10:29:08;6.00;99.90
52849;DHT22;38714;53.180;5.812;2024-02-23T10:31:36;6.00;99.90
52849;DHT22;38714;53.180;5.812;2024-02-23T10:34:09;6.00;99.90
52849;DHT22;38714;53.180;5.812;2024-02-23T10:36:41;6.10;99.90
52849;DHT22;38714;53.180;5.812;2024-02-23T10:39:08;6.10;99.90
52849;DHT22;38714;53.180;5.812;2024-02-23T10:41:39;6.10;99.90
52849;DHT22;38714;53.180;5.812;2024-02-23T10:44:11;6.10;99.90
52849;DHT22;38714;53.180;5.812;2024-02-23T10:46:37;6.10;99.90
52849;DHT22;38714;53.180;5.812;2024-02-23T10:49:02;6.10;99.90
52849;DHT22;38714;53.180;5.812;2024-02-23T10:51:28;6.10;99.90
52849;DHT22;38714;53.180;5.812;2024-02-23T10:53:55;6.10;99.90
52849;DHT22;38714;53.180;5.812;2024-02-23T10:56:21;6.10;99.90
52849;DHT22;38714;53.180;5.812;2024-02-23T10:58:48;6.10;99.90
52849;DHT22;38714;53.180;5.812;2024-02-23T11:01:14;6.20;99.90
52849;DHT22;38714;53.180;5.812;2024-02-23T11:03:42;6.20;99.90
52849;DHT22;38714;53.180;5.812;2024-02-23T11:06:08;6.30;99.90
52849;DHT22;38714;53.180;5.812;2024-02-23T11:08:34;6.30;99.90
52849;DHT22;38714;53.180;5.812;2024-02-23T11:11:11;6.30;99.90
52849;DHT22;38714;53.180;5.812;2024-02-23T11:13:37;6.40;99.90
52849;DHT22;38714;53.180;5.812;2024-02-23T11:16:07;6.40;99.90
52849;DHT22;38714;53.180;5.812;2024-02-23T11:18:38;6.40;99.90
52849;DHT22;38714;53.180;5.812;2024-02-23T11:21:05;6.50;99.90
52849;DHT22;38714;53.180;5.812;2024-02-23T11:23:41;6.60;99.90
52849;DHT22;38714;53.180;5.812;2024-02-23T11:26:11;6.70;99.90
52849;DHT22;38714;53.180;5.812;2024-02-23T11:31:18;6.80;99.90
52849;DHT22;38714;53.180;5.812;2024-02-23T11:33:52;6.90;99.90
52849;DHT22;38714;53.180;5.812;2024-02-23T11:36:31;6.90;99.90
52849;DHT22;38714;53.180;5.812;2024-02-23T11:38:59;6.90;99.90
52849;DHT22;38714;53.180;5.812;2024-02-23T11:41:25;7.00;99.90
52849;DHT22;38714;53.180;5.812;2024-02-23T11:43:52;7.00;99.90
52849;DHT22;38714;53.180;5.812;2024-02-23T11:46:18;7.00;99.90
52849;DHT22;38714;53.180;5.812;2024-02-23T11:48:44;7.10;99.90
52849;DHT22;38714;53.180;5.812;2024-02-23T11:51:15;7.10;99.90
52849;DHT22;38714;53.180;5.812;2024-02-23T11:53:41;7.20;99.90
52849;DHT22;38714;53.180;5.812;2024-02-23T11:56:07;7.20;99.90
52849;DHT22;38714;53.180;5.812;2024-02-23T11:58:33;7.20;99.90
52849;DHT22;38714;53.180;5.812;2024-02-23T12:01:02;7.20;99.90
52849;DHT22;38714;53.180;5.812;2024-02-23T12:03:31;7.10;99.90
52849;DHT22;38714;53.180;5.812;2024-02-23T12:05:57;7.10;99.90
52849;DHT22;38714;53.180;5.812;2024-02-23T12:08:27;7.10;99.90
52849;DHT22;38714;53.180;5.812;2024-02-23T12:10:56;7.10;99.90
52849;DHT22;38714;53.180;5.812;2024-02-23T12:13:23;7.10;99.90
52849;DHT22;38714;53.180;5.812;2024-02-23T12:15:52;7.10;99.90
52849;DHT22;38714;53.180;5.812;2024-02-23T12:18:20;7.10;99.90
52849;DHT22;38714;53.180;5.812;2024-02-23T12:20:48;7.20;99.90
52849;DHT22;38714;53.180;5.812;2024-02-23T12:23:14;7.20;99.90
52849;DHT22;38714;53.180;5.812;2024-02-23T12:25:40;7.20;99.90
52849;DHT22;38714;53.180;5.812;2024-02-23T12:28:06;7.20;99.90
52849;DHT22;38714;53.180;5.812;2024-02-23T12:30:31;7.20;99.90
52849;DHT22;38714;53.180;5.812;2024-02-23T12:33:07;7.20;99.90
52849;DHT22;38714;53.180;5.812;2024-02-23T12:35:34;7.10;99.90
52849;DHT22;38714;53.180;5.812;2024-02-23T12:38:00;7.10;99.90
52849;DHT22;38714;53.180;5.812;2024-02-23T12:40:26;7.10;99.90
52849;DHT22;38714;53.180;5.812;2024-02-23T12:42:51;7.00;99.90
52849;DHT22;38714;53.180;5.812;2024-02-23T12:45:17;7.00;99.90
52849;DHT22;38714;53.180;5.812;2024-02-23T12:47:43;7.10;99.90
52849;DHT22;38714;53.180;5.812;2024-02-23T12:50:08;7.10;99.90
52849;DHT22;38714;53.180;5.812;2024-02-23T12:52:35;7.10;99.90
52849;DHT22;38714;53.180;5.812;2024-02-23T12:55:01;7.10;99.90
52849;DHT22;38714;53.180;5.812;2024-02-23T12:57:26;7.20;99.90
52849;DHT22;38714;53.180;5.812;2024-02-23T12:59:52;7.20;99.90
52849;DHT22;38714;53.180;5.812;2024-02-23T13:02:17;7.20;99.90
52849;DHT22;38714;53.180;5.812;2024-02-23T13:04:44;7.30;99.90
52849;DHT22;38714;53.180;5.812;2024-02-23T13:07:14;7.30;99.90
52849;DHT22;38714;53.180;5.812;2024-02-23T13:09:42;7.30;99.90
52849;DHT22;38714;53.180;5.812;2024-02-23T13:12:08;7.40;99.90
52849;DHT22;38714;53.180;5.812;2024-02-23T13:14:33;7.40;99.90
52849;DHT22;38714;53.180;5.812;2024-02-23T13:16:59;7.40;99.90
52849;DHT22;38714;53.180;5.812;2024-02-23T13:19:24;7.40;99.90
52849;DHT22;38714;53.180;5.812;2024-02-23T13:21:50;7.40;99.90
52849;DHT22;38714;53.180;5.812;2024-02-23T13:24:16;7.40;99.90
52849;DHT22;38714;53.180;5.812;2024-02-23T13:26:41;7.40;99.90
52849;DHT22;38714;53.180;5.812;2024-02-23T13:29:07;7.40;99.90
52849;DHT22;38714;53.180;5.812;2024-02-23T13:31:33;7.40;99.90
52849;DHT22;38714;53.180;5.812;2024-02-23T13:33:58;7.40;99.90
52849;DHT22;38714;53.180;5.812;2024-02-23T13:36:24;7.40;99.90
52849;DHT22;38714;53.180;5.812;2024-02-23T13:38:49;7.40;99.90
52849;DHT22;38714;53.180;5.812;2024-02-23T13:41:17;7.40;99.90
52849;DHT22;38714;53.180;5.812;2024-02-23T13:43:42;7.40;99.90
52849;DHT22;38714;53.180;5.812;2024-02-23T13:46:08;7.50;99.90
52849;DHT22;38714;53.180;5.812;2024-02-23T13:48:34;7.40;99.90
52849;DHT22;38714;53.180;5.812;2024-02-23T13:50:59;7.50;99.90
52849;DHT22;38714;53.180;5.812;2024-02-23T13:53:29;7.60;99.90
52849;DHT22;38714;53.180;5.812;2024-02-23T13:55:55;7.60;99.90
52849;DHT22;38714;53.180;5.812;2024-02-23T13:58:21;7.60;99.90
52849;DHT22;38714;53.180;5.812;2024-02-23T14:00:47;7.70;99.90
52849;DHT22;38714;53.180;5.812;2024-02-23T14:03:16;7.70;99.90
52849;DHT22;38714;53.180;5.812;2024-02-23T14:05:46;7.70;99.90
52849;DHT22;38714;53.180;5.812;2024-02-23T14:08:12;7.80;99.90
52849;DHT22;38714;53.180;5.812;2024-02-23T14:10:38;7.80;99.90
52849;DHT22;38714;53.180;5.812;2024-02-23T14:13:05;7.80;99.90
52849;DHT22;38714;53.180;5.812;2024-02-23T14:15:31;7.80;99.90
52849;DHT22;38714;53.180;5.812;2024-02-23T14:17:57;7.80;99.90
52849;DHT22;38714;53.180;5.812;2024-02-23T14:20:23;7.80;99.90
52849;DHT22;38714;53.180;5.812;2024-02-23T14:22:48;7.80;99.90
52849;DHT22;38714;53.180;5.812;2024-02-23T14:25:15;7.80;99.90
52849;DHT22;38714;53.180;5.812;2024-02-23T14:27:41;7.80;99.90
52849;DHT22;38714;53.180;5.812;2024-02-23T14:30:07;7.80;99.90
52849;DHT22;38714;53.180;5.812;2024-02-23T14:32:33;7.80;99.90
52849;DHT22;38714;53.180;5.812;2024-02-23T14:35:02;7.80;99.90
52849;DHT22;38714;53.180;5.812;2024-02-23T14:37:28;7.80;99.90
52849;DHT22;38714;53.180;5.812;2024-02-23T14:39:54;7.80;99.90
52849;DHT22;38714;53.180;5.812;2024-02-23T14:42:19;7.90;99.90
52849;DHT22;38714;53.180;5.812;2024-02-23T14:44:45;7.90;99.90
52849;DHT22;38714;53.180;5.812;2024-02-23T14:47:11;7.90;99.90
52849;DHT22;38714;53.180;5.812;2024-02-23T14:49:38;7.90;99.90
52849;DHT22;38714;53.180;5.812;2024-02-23T14:52:04;7.90;99.90
52849;DHT22;38714;53.180;5.812;2024-02-23T14:54:30;7.90;99.90
52849;DHT22;38714;53.180;5.812;2024-02-23T14:56:55;7.90;99.90
52849;DHT22;38714;53.180;5.812;2024-02-23T14:59:21;7.80;99.90
52849;DHT22;38714;53.180;5.812;2024-02-23T15:01:46;7.80;99.90
52849;DHT22;38714;53.180;5.812;2024-02-23T15:04:12;7.90;99.90
52849;DHT22;38714;53.180;5.812;2024-02-23T15:06:38;7.90;99.90
52849;DHT22;38714;53.180;5.812;2024-02-23T15:09:04;7.80;99.90
52849;DHT22;38714;53.180;5.812;2024-02-23T15:11:31;7.80;99.90
52849;DHT22;38714;53.180;5.812;2024-02-23T15:13:56;7.70;99.90
52849;DHT22;38714;53.180;5.812;2024-02-23T15:16:27;7.70;99.90
52849;DHT22;38714;53.180;5.812;2024-02-23T15:18:53;7.70;99.90
52849;DHT22;38714;53.180;5.812;2024-02-23T15:21:19;7.70;99.90
52849;DHT22;38714;53.180;5.812;2024-02-23T15:23:45;7.60;99.90
52849;DHT22;38714;53.180;5.812;2024-02-23T15:26:10;7.60;99.90
52849;DHT22;38714;53.180;5.812;2024-02-23T15:28:37;7.60;99.90
52849;DHT22;38714;53.180;5.812;2024-02-23T15:31:02;7.70;99.90
52849;DHT22;38714;53.180;5.812;2024-02-23T15:33:28;7.70;99.90
52849;DHT22;38714;53.180;5.812;2024-02-23T15:35:54;7.70;99.90
52849;DHT22;38714;53.180;5.812;2024-02-23T15:38:20;7.70;99.90
52849;DHT22;38714;53.180;5.812;2024-02-23T15:40:46;7.70;99.90